sensor_id;sensor_type;location;lat;lon;timestamp;P1;durP1;ratioP1;P2;durP2;ratioP2
15067;SDS011;7633;60.024;18.770;2023-05-10T00:02:04;3.23;;;2.87;;
15067;SDS011;7633;60.024;18.770;2023-05-10T00:04:30;2.70;;;2.40;;
15067;SDS011;7633;60.024;18.770;2023-05-10T00:06:56;3.17;;;2.83;;
15067;SDS011;7633;60.024;18.770;2023-05-10T00:09:23;4.17;;;2.73;;
15067;SDS011;7633;60.024;18.770;2023-05-10T00:11:52;2.60;;;2.27;;
15067;SDS011;7633;60.024;18.770;2023-05-10T00:14:25;4.00;;;2.90;;
15067;SDS011;7633;60.024;18.770;2023-05-10T00:16:53;5.73;;;2.83;;
15067;SDS011;7633;60.024;18.770;2023-05-10T00:19:23;4.07;;;2.90;;
15067;SDS011;7633;60.024;18.770;2023-05-10T00:21:52;3.17;;;2.87;;
15067;SDS011;7633;60.024;18.770;2023-05-10T00:24:21;2.93;;;2.60;;
15067;SDS011;7633;60.024;18.770;2023-05-10T00:26:48;3.53;;;1.80;;
15067;SDS011;7633;60.024;18.770;2023-05-10T00:29:18;5.23;;;3.40;;
15067;SDS011;7633;60.024;18.770;2023-05-10T00:31:48;2.83;;;2.20;;
15067;SDS011;7633;60.024;18.770;2023-05-10T00:34:22;3.80;;;3.30;;
15067;SDS011;7633;60.024;18.770;2023-05-10T00:36:52;3.27;;;2.80;;
15067;SDS011;7633;60.024;18.770;2023-05-10T00:39:23;1.97;;;1.40;;
15067;SDS011;7633;60.024;18.770;2023-05-10T00:42:02;3.50;;;2.90;;
15067;SDS011;7633;60.024;18.770;2023-05-10T00:44:39;3.27;;;2.20;;
15067;SDS011;7633;60.024;18.770;2023-05-10T00:47:04;5.33;;;2.90;;
15067;SDS011;7633;60.024;18.770;2023-05-10T00:49:34;4.20;;;2.57;;
15067;SDS011;7633;60.024;18.770;2023-05-10T00:52:09;4.60;;;3.50;;
15067;SDS011;7633;60.024;18.770;2023-05-10T00:54:45;3.63;;;3.00;;
15067;SDS011;7633;60.024;18.770;2023-05-10T00:57:15;4.27;;;3.53;;
15067;SDS011;7633;60.024;18.770;2023-05-10T00:59:47;3.90;;;2.53;;
15067;SDS011;7633;60.024;18.770;2023-05-10T01:02:16;3.50;;;3.20;;
15067;SDS011;7633;60.024;18.770;2023-05-10T01:04:47;3.83;;;3.30;;
15067;SDS011;7633;60.024;18.770;2023-05-10T01:07:25;4.73;;;3.10;;
15067;SDS011;7633;60.024;18.770;2023-05-10T01:09:55;4.23;;;3.33;;
15067;SDS011;7633;60.024;18.770;2023-05-10T01:12:20;4.33;;;3.30;;
15067;SDS011;7633;60.024;18.770;2023-05-10T01:14:46;5.40;;;2.80;;
15067;SDS011;7633;60.024;18.770;2023-05-10T01:17:15;4.17;;;3.10;;
15067;SDS011;7633;60.024;18.770;2023-05-10T01:19:48;6.10;;;3.03;;
15067;SDS011;7633;60.024;18.770;2023-05-10T01:27:47;4.27;;;3.13;;
15067;SDS011;7633;60.024;18.770;2023-05-10T01:33:30;4.27;;;3.47;;
15067;SDS011;7633;60.024;18.770;2023-05-10T01:36:05;3.10;;;2.13;;
15067;SDS011;7633;60.024;18.770;2023-05-10T01:38:38;5.83;;;3.13;;
15067;SDS011;7633;60.024;18.770;2023-05-10T01:41:12;3.53;;;3.17;;
15067;SDS011;7633;60.024;18.770;2023-05-10T01:43:42;4.47;;;3.47;;
15067;SDS011;7633;60.024;18.770;2023-05-10T01:46:10;2.93;;;2.33;;
15067;SDS011;7633;60.024;18.770;2023-05-10T01:48:51;4.17;;;3.30;;
15067;SDS011;7633;60.024;18.770;2023-05-10T01:51:23;3.50;;;3.20;;
15067;SDS011;7633;60.024;18.770;2023-05-10T01:53:51;4.20;;;3.37;;
15067;SDS011;7633;60.024;18.770;2023-05-10T01:56:19;3.80;;;3.20;;
15067;SDS011;7633;60.024;18.770;2023-05-10T01:58:47;4.70;;;3.87;;
15067;SDS011;7633;60.024;18.770;2023-05-10T02:01:13;5.53;;;3.67;;
15067;SDS011;7633;60.024;18.770;2023-05-10T02:03:39;4.00;;;3.60;;
15067;SDS011;7633;60.024;18.770;2023-05-10T02:06:05;4.27;;;3.50;;
15067;SDS011;7633;60.024;18.770;2023-05-10T02:08:32;5.33;;;4.00;;
15067;SDS011;7633;60.024;18.770;2023-05-10T02:11:00;4.60;;;3.73;;
15067;SDS011;7633;60.024;18.770;2023-05-10T02:13:26;4.10;;;3.50;;
15067;SDS011;7633;60.024;18.770;2023-05-10T02:15:52;4.03;;;3.33;;
15067;SDS011;7633;60.024;18.770;2023-05-10T02:18:18;4.13;;;3.73;;
15067;SDS011;7633;60.024;18.770;2023-05-10T02:20:47;3.50;;;3.20;;
15067;SDS011;7633;60.024;18.770;2023-05-10T02:23:13;5.00;;;3.83;;
15067;SDS011;7633;60.024;18.770;2023-05-10T02:25:39;5.37;;;3.90;;
15067;SDS011;7633;60.024;18.770;2023-05-10T02:28:05;4.57;;;3.70;;
15067;SDS011;7633;60.024;18.770;2023-05-10T02:30:32;5.07;;;3.90;;
15067;SDS011;7633;60.024;18.770;2023-05-10T02:32:58;4.00;;;3.37;;
15067;SDS011;7633;60.024;18.770;2023-05-10T02:35:25;3.60;;;3.13;;
15067;SDS011;7633;60.024;18.770;2023-05-10T02:37:51;4.80;;;3.60;;
15067;SDS011;7633;60.024;18.770;2023-05-10T02:40:17;4.17;;;3.60;;
15067;SDS011;7633;60.024;18.770;2023-05-10T02:42:43;5.97;;;3.70;;
15067;SDS011;7633;60.024;18.770;2023-05-10T02:45:11;4.53;;;3.20;;
15067;SDS011;7633;60.024;18.770;2023-05-10T02:47:37;5.73;;;3.70;;
15067;SDS011;7633;60.024;18.770;2023-05-10T02:50:03;4.90;;;3.30;;
15067;SDS011;7633;60.024;18.770;2023-05-10T02:52:29;4.10;;;2.80;;
15067;SDS011;7633;60.024;18.770;2023-05-10T02:54:58;4.50;;;3.50;;
15067;SDS011;7633;60.024;18.770;2023-05-10T02:57:26;5.47;;;3.53;;
15067;SDS011;7633;60.024;18.770;2023-05-10T02:59:52;4.53;;;3.10;;
15067;SDS011;7633;60.024;18.770;2023-05-10T03:02:18;3.90;;;3.43;;
15067;SDS011;7633;60.024;18.770;2023-05-10T03:04:43;4.17;;;3.33;;
15067;SDS011;7633;60.024;18.770;2023-05-10T03:07:08;5.13;;;3.10;;
15067;SDS011;7633;60.024;18.770;2023-05-10T03:09:34;3.50;;;2.83;;
15067;SDS011;7633;60.024;18.770;2023-05-10T03:14:43;4.00;;;3.10;;
15067;SDS011;7633;60.024;18.770;2023-05-10T03:17:11;3.37;;;2.73;;
15067;SDS011;7633;60.024;18.770;2023-05-10T03:19:43;4.70;;;3.13;;
15067;SDS011;7633;60.024;18.770;2023-05-10T03:22:10;3.40;;;3.10;;
15067;SDS011;7633;60.024;18.770;2023-05-10T03:24:37;3.37;;;3.07;;
15067;SDS011;7633;60.024;18.770;2023-05-10T03:27:04;3.50;;;3.20;;
15067;SDS011;7633;60.024;18.770;2023-05-10T03:29:30;4.87;;;3.10;;
15067;SDS011;7633;60.024;18.770;2023-05-10T03:31:57;4.83;;;3.13;;
15067;SDS011;7633;60.024;18.770;2023-05-10T03:34:24;4.80;;;3.20;;
15067;SDS011;7633;60.024;18.770;2023-05-10T03:36:49;3.60;;;3.03;;
15067;SDS011;7633;60.024;18.770;2023-05-10T03:39:15;4.30;;;3.00;;
15067;SDS011;7633;60.024;18.770;2023-05-10T03:41:40;3.37;;;2.80;;
15067;SDS011;7633;60.024;18.770;2023-05-10T03:44:06;4.13;;;3.30;;
15067;SDS011;7633;60.024;18.770;2023-05-10T03:46:31;4.40;;;2.80;;
15067;SDS011;7633;60.024;18.770;2023-05-10T03:48:57;3.97;;;3.10;;
15067;SDS011;7633;60.024;18.770;2023-05-10T03:51:22;3.53;;;3.17;;
15067;SDS011;7633;60.024;18.770;2023-05-10T03:53:49;3.27;;;2.87;;
15067;SDS011;7633;60.024;18.770;2023-05-10T03:56:14;3.03;;;2.83;;
15067;SDS011;7633;60.024;18.770;2023-05-10T03:58:40;5.00;;;2.90;;
15067;SDS011;7633;60.024;18.770;2023-05-10T04:01:05;3.93;;;2.93;;
15067;SDS011;7633;60.024;18.770;2023-05-10T04:03:30;4.37;;;3.00;;
15067;SDS011;7633;60.024;18.770;2023-05-10T04:06:02;3.53;;;3.17;;
15067;SDS011;7633;60.024;18.770;2023-05-10T04:08:28;4.47;;;2.67;;
15067;SDS011;7633;60.024;18.770;2023-05-10T04:10:54;3.50;;;2.83;;
15067;SDS011;7633;60.024;18.770;2023-05-10T04:13:19;3.77;;;3.03;;
15067;SDS011;7633;60.024;18.770;2023-05-10T04:15:45;3.27;;;2.73;;
15067;SDS011;7633;60.024;18.770;2023-05-10T04:18:11;3.90;;;3.00;;
15067;SDS011;7633;60.024;18.770;2023-05-10T04:20:36;2.77;;;2.50;;
15067;SDS011;7633;60.024;18.770;2023-05-10T04:23:02;3.70;;;3.30;;
15067;SDS011;7633;60.024;18.770;2023-05-10T04:25:27;3.87;;;2.83;;
15067;SDS011;7633;60.024;18.770;2023-05-10T04:27:52;3.47;;;3.13;;
15067;SDS011;7633;60.024;18.770;2023-05-10T04:30:18;5.30;;;3.10;;
15067;SDS011;7633;60.024;18.770;2023-05-10T04:32:43;3.97;;;3.10;;
15067;SDS011;7633;60.024;18.770;2023-05-10T04:35:09;4.70;;;2.90;;
15067;SDS011;7633;60.024;18.770;2023-05-10T04:37:35;4.50;;;2.60;;
15067;SDS011;7633;60.024;18.770;2023-05-10T04:40:02;2.97;;;2.77;;
15067;SDS011;7633;60.024;18.770;2023-05-10T04:42:28;3.93;;;2.87;;
15067;SDS011;7633;60.024;18.770;2023-05-10T04:44:54;5.30;;;2.87;;
15067;SDS011;7633;60.024;18.770;2023-05-10T04:47:19;3.60;;;2.70;;
15067;SDS011;7633;60.024;18.770;2023-05-10T04:49:45;2.43;;;2.20;;
15067;SDS011;7633;60.024;18.770;2023-05-10T04:52:10;3.77;;;3.17;;
15067;SDS011;7633;60.024;18.770;2023-05-10T04:54:36;3.57;;;2.70;;
15067;SDS011;7633;60.024;18.770;2023-05-10T04:57:01;3.47;;;2.53;;
15067;SDS011;7633;60.024;18.770;2023-05-10T04:59:27;2.73;;;2.53;;
15067;SDS011;7633;60.024;18.770;2023-05-10T05:01:52;2.43;;;2.07;;
15067;SDS011;7633;60.024;18.770;2023-05-10T05:04:19;4.67;;;2.40;;
15067;SDS011;7633;60.024;18.770;2023-05-10T05:06:44;2.73;;;2.20;;
15067;SDS011;7633;60.024;18.770;2023-05-10T05:09:10;3.00;;;2.60;;
15067;SDS011;7633;60.024;18.770;2023-05-10T05:11:35;2.30;;;2.03;;
15067;SDS011;7633;60.024;18.770;2023-05-10T05:14:00;3.67;;;2.53;;
15067;SDS011;7633;60.024;18.770;2023-05-10T05:16:26;3.23;;;2.50;;
15067;SDS011;7633;60.024;18.770;2023-05-10T05:18:52;3.20;;;2.30;;
15067;SDS011;7633;60.024;18.770;2023-05-10T05:21:17;2.60;;;2.27;;
15067;SDS011;7633;60.024;18.770;2023-05-10T05:23:43;2.83;;;2.40;;
15067;SDS011;7633;60.024;18.770;2023-05-10T05:26:09;2.33;;;2.13;;
15067;SDS011;7633;60.024;18.770;2023-05-10T05:28:34;3.33;;;2.40;;
15067;SDS011;7633;60.024;18.770;2023-05-10T05:31:02;3.13;;;2.50;;
15067;SDS011;7633;60.024;18.770;2023-05-10T05:33:29;3.17;;;2.40;;
15067;SDS011;7633;60.024;18.770;2023-05-10T05:35:56;2.30;;;2.15;;
15067;SDS011;7633;60.024;18.770;2023-05-10T05:38:21;3.58;;;2.25;;
15067;SDS011;7633;60.024;18.770;2023-05-10T05:40:47;3.97;;;2.63;;
15067;SDS011;7633;60.024;18.770;2023-05-10T05:43:12;4.30;;;2.63;;
15067;SDS011;7633;60.024;18.770;2023-05-10T05:45:38;2.78;;;2.25;;
15067;SDS011;7633;60.024;18.770;2023-05-10T05:48:05;3.75;;;2.40;;
15067;SDS011;7633;60.024;18.770;2023-05-10T05:50:31;3.10;;;2.80;;
15067;SDS011;7633;60.024;18.770;2023-05-10T05:52:56;3.30;;;2.50;;
15067;SDS011;7633;60.024;18.770;2023-05-10T05:55:23;2.85;;;2.58;;
15067;SDS011;7633;60.024;18.770;2023-05-10T05:57:49;5.13;;;2.40;;
15067;SDS011;7633;60.024;18.770;2023-05-10T06:00:14;2.50;;;2.30;;
15067;SDS011;7633;60.024;18.770;2023-05-10T06:02:40;3.33;;;2.50;;
15067;SDS011;7633;60.024;18.770;2023-05-10T06:05:06;2.80;;;2.60;;
15067;SDS011;7633;60.024;18.770;2023-05-10T06:07:31;2.50;;;2.30;;
15067;SDS011;7633;60.024;18.770;2023-05-10T06:09:56;2.95;;;2.47;;
15067;SDS011;7633;60.024;18.770;2023-05-10T06:12:22;3.35;;;3.03;;
15067;SDS011;7633;60.024;18.770;2023-05-10T06:14:47;2.42;;;2.15;;
15067;SDS011;7633;60.024;18.770;2023-05-10T06:17:13;2.42;;;2.22;;
15067;SDS011;7633;60.024;18.770;2023-05-10T06:19:40;2.65;;;2.45;;
15067;SDS011;7633;60.024;18.770;2023-05-10T06:22:05;3.88;;;2.50;;
15067;SDS011;7633;60.024;18.770;2023-05-10T06:24:31;2.72;;;2.47;;
15067;SDS011;7633;60.024;18.770;2023-05-10T06:26:56;2.17;;;1.98;;
15067;SDS011;7633;60.024;18.770;2023-05-10T06:29:25;2.50;;;2.30;;
15067;SDS011;7633;60.024;18.770;2023-05-10T06:31:50;3.08;;;2.10;;
15067;SDS011;7633;60.024;18.770;2023-05-10T06:34:17;2.42;;;2.17;;
15067;SDS011;7633;60.024;18.770;2023-05-10T06:36:42;3.00;;;2.70;;
15067;SDS011;7633;60.024;18.770;2023-05-10T06:39:08;2.58;;;2.38;;
15067;SDS011;7633;60.024;18.770;2023-05-10T06:41:33;3.35;;;2.40;;
15067;SDS011;7633;60.024;18.770;2023-05-10T06:43:59;2.97;;;2.25;;
15067;SDS011;7633;60.024;18.770;2023-05-10T06:46:24;2.55;;;2.25;;
15067;SDS011;7633;60.024;18.770;2023-05-10T06:48:50;2.47;;;1.63;;
15067;SDS011;7633;60.024;18.770;2023-05-10T06:51:15;3.92;;;2.40;;
15067;SDS011;7633;60.024;18.770;2023-05-10T06:53:41;4.20;;;3.00;;
15067;SDS011;7633;60.024;18.770;2023-05-10T06:56:06;4.20;;;2.20;;
15067;SDS011;7633;60.024;18.770;2023-05-10T06:58:32;1.70;;;1.60;;
15067;SDS011;7633;60.024;18.770;2023-05-10T07:01:04;3.05;;;2.53;;
15067;SDS011;7633;60.024;18.770;2023-05-10T07:03:30;4.57;;;2.30;;
15067;SDS011;7633;60.024;18.770;2023-05-10T07:05:59;3.70;;;2.15;;
15067;SDS011;7633;60.024;18.770;2023-05-10T07:08:25;3.28;;;2.28;;
15067;SDS011;7633;60.024;18.770;2023-05-10T07:10:50;3.15;;;2.60;;
15067;SDS011;7633;60.024;18.770;2023-05-10T07:13:16;2.25;;;2.05;;
15067;SDS011;7633;60.024;18.770;2023-05-10T07:15:41;2.55;;;2.35;;
15067;SDS011;7633;60.024;18.770;2023-05-10T07:18:07;4.53;;;2.38;;
15067;SDS011;7633;60.024;18.770;2023-05-10T07:20:32;5.40;;;2.55;;
15067;SDS011;7633;60.024;18.770;2023-05-10T07:22:58;3.13;;;2.70;;
15067;SDS011;7633;60.024;18.770;2023-05-10T07:25:23;2.35;;;2.15;;
15067;SDS011;7633;60.024;18.770;2023-05-10T07:27:49;2.78;;;2.20;;
15067;SDS011;7633;60.024;18.770;2023-05-10T07:30:15;2.55;;;2.28;;
15067;SDS011;7633;60.024;18.770;2023-05-10T07:32:41;2.90;;;2.40;;
15067;SDS011;7633;60.024;18.770;2023-05-10T07:35:07;2.80;;;2.55;;
15067;SDS011;7633;60.024;18.770;2023-05-10T07:37:32;3.15;;;2.85;;
15067;SDS011;7633;60.024;18.770;2023-05-10T07:39:57;2.85;;;2.55;;
15067;SDS011;7633;60.024;18.770;2023-05-10T07:42:26;2.67;;;2.47;;
15067;SDS011;7633;60.024;18.770;2023-05-10T07:44:51;2.15;;;2.03;;
15067;SDS011;7633;60.024;18.770;2023-05-10T07:47:17;4.35;;;2.38;;
15067;SDS011;7633;60.024;18.770;2023-05-10T07:49:42;2.60;;;2.40;;
15067;SDS011;7633;60.024;18.770;2023-05-10T07:52:08;2.10;;;1.75;;
15067;SDS011;7633;60.024;18.770;2023-05-10T07:54:34;2.33;;;2.10;;
15067;SDS011;7633;60.024;18.770;2023-05-10T07:56:59;2.17;;;1.98;;
15067;SDS011;7633;60.024;18.770;2023-05-10T07:59:25;3.05;;;2.63;;
15067;SDS011;7633;60.024;18.770;2023-05-10T08:01:50;2.83;;;2.10;;
15067;SDS011;7633;60.024;18.770;2023-05-10T08:04:15;3.00;;;2.53;;
15067;SDS011;7633;60.024;18.770;2023-05-10T08:06:41;2.53;;;2.33;;
15067;SDS011;7633;60.024;18.770;2023-05-10T08:09:06;2.90;;;2.33;;
15067;SDS011;7633;60.024;18.770;2023-05-10T08:11:32;3.00;;;2.70;;
15067;SDS011;7633;60.024;18.770;2023-05-10T08:13:58;4.07;;;2.53;;
15067;SDS011;7633;60.024;18.770;2023-05-10T08:16:23;2.60;;;2.40;;
15067;SDS011;7633;60.024;18.770;2023-05-10T08:18:49;3.67;;;2.20;;
15067;SDS011;7633;60.024;18.770;2023-05-10T08:21:15;3.50;;;2.80;;
15067;SDS011;7633;60.024;18.770;2023-05-10T08:23:42;2.67;;;2.47;;
15067;SDS011;7633;60.024;18.770;2023-05-10T08:26:08;2.63;;;2.42;;
15067;SDS011;7633;60.024;18.770;2023-05-10T08:28:34;2.85;;;2.47;;
15067;SDS011;7633;60.024;18.770;2023-05-10T08:30:59;10.98;;;1.77;;
15067;SDS011;7633;60.024;18.770;2023-05-10T08:33:25;3.03;;;2.30;;
15067;SDS011;7633;60.024;18.770;2023-05-10T08:35:50;2.75;;;2.22;;
15067;SDS011;7633;60.024;18.770;2023-05-10T08:38:15;3.95;;;2.53;;
15067;SDS011;7633;60.024;18.770;2023-05-10T08:40:41;4.65;;;3.00;;
15067;SDS011;7633;60.024;18.770;2023-05-10T08:43:08;2.80;;;2.00;;
15067;SDS011;7633;60.024;18.770;2023-05-10T08:45:37;2.30;;;2.10;;
15067;SDS011;7633;60.024;18.770;2023-05-10T08:48:04;3.15;;;2.20;;
15067;SDS011;7633;60.024;18.770;2023-05-10T08:50:30;2.53;;;2.00;;
15067;SDS011;7633;60.024;18.770;2023-05-10T08:52:57;2.90;;;2.55;;
15067;SDS011;7633;60.024;18.770;2023-05-10T08:55:24;2.78;;;2.30;;
15067;SDS011;7633;60.024;18.770;2023-05-10T08:57:49;2.60;;;2.40;;
15067;SDS011;7633;60.024;18.770;2023-05-10T09:00:16;4.07;;;2.50;;
15067;SDS011;7633;60.024;18.770;2023-05-10T09:02:42;2.83;;;2.33;;
15067;SDS011;7633;60.024;18.770;2023-05-10T09:05:09;2.63;;;1.67;;
15067;SDS011;7633;60.024;18.770;2023-05-10T09:07:35;4.13;;;2.00;;
15067;SDS011;7633;60.024;18.770;2023-05-10T09:10:01;1.98;;;1.75;;
15067;SDS011;7633;60.024;18.770;2023-05-10T09:12:27;4.13;;;2.40;;
15067;SDS011;7633;60.024;18.770;2023-05-10T09:14:52;3.72;;;2.05;;
15067;SDS011;7633;60.024;18.770;2023-05-10T09:17:19;2.28;;;2.08;;
15067;SDS011;7633;60.024;18.770;2023-05-10T09:19:45;2.90;;;2.60;;
15067;SDS011;7633;60.024;18.770;2023-05-10T09:22:10;2.83;;;2.47;;
15067;SDS011;7633;60.024;18.770;2023-05-10T09:24:36;2.78;;;2.25;;
15067;SDS011;7633;60.024;18.770;2023-05-10T09:27:07;2.78;;;2.38;;
15067;SDS011;7633;60.024;18.770;2023-05-10T09:29:42;2.75;;;1.63;;
15067;SDS011;7633;60.024;18.770;2023-05-10T09:32:08;2.00;;;1.80;;
15067;SDS011;7633;60.024;18.770;2023-05-10T09:34:33;3.40;;;2.30;;
15067;SDS011;7633;60.024;18.770;2023-05-10T09:37:01;2.45;;;2.25;;
15067;SDS011;7633;60.024;18.770;2023-05-10T09:39:34;2.72;;;2.17;;
15067;SDS011;7633;60.024;18.770;2023-05-10T09:42:01;2.22;;;2.05;;
15067;SDS011;7633;60.024;18.770;2023-05-10T09:44:29;2.67;;;1.70;;
15067;SDS011;7633;60.024;18.770;2023-05-10T09:46:54;1.45;;;1.35;;
15067;SDS011;7633;60.024;18.770;2023-05-10T09:49:20;2.42;;;2.22;;
15067;SDS011;7633;60.024;18.770;2023-05-10T09:51:45;2.53;;;2.33;;
15067;SDS011;7633;60.024;18.770;2023-05-10T09:54:12;2.28;;;2.05;;
15067;SDS011;7633;60.024;18.770;2023-05-10T09:56:38;3.90;;;2.45;;
15067;SDS011;7633;60.024;18.770;2023-05-10T09:59:05;2.70;;;2.50;;
15067;SDS011;7633;60.024;18.770;2023-05-10T10:01:31;2.80;;;2.60;;
15067;SDS011;7633;60.024;18.770;2023-05-10T10:03:56;2.75;;;1.95;;
15067;SDS011;7633;60.024;18.770;2023-05-10T10:06:24;2.42;;;2.22;;
15067;SDS011;7633;60.024;18.770;2023-05-10T10:08:50;2.63;;;2.42;;
15067;SDS011;7633;60.024;18.770;2023-05-10T10:11:16;1.92;;;1.83;;
15067;SDS011;7633;60.024;18.770;2023-05-10T10:13:41;3.60;;;2.60;;
15067;SDS011;7633;60.024;18.770;2023-05-10T10:16:08;2.80;;;2.50;;
15067;SDS011;7633;60.024;18.770;2023-05-10T10:18:33;2.47;;;2.28;;
15067;SDS011;7633;60.024;18.770;2023-05-10T10:21:04;5.15;;;3.40;;
15067;SDS011;7633;60.024;18.770;2023-05-10T10:23:30;3.47;;;2.67;;
15067;SDS011;7633;60.024;18.770;2023-05-10T10:25:55;2.58;;;2.10;;
15067;SDS011;7633;60.024;18.770;2023-05-10T10:30:51;1.90;;;1.77;;
15067;SDS011;7633;60.024;18.770;2023-05-10T10:35:50;4.93;;;1.92;;
15067;SDS011;7633;60.024;18.770;2023-05-10T10:38:17;3.10;;;2.63;;
15067;SDS011;7633;60.024;18.770;2023-05-10T10:40:44;3.22;;;2.33;;
15067;SDS011;7633;60.024;18.770;2023-05-10T10:43:28;3.03;;;2.17;;
15067;SDS011;7633;60.024;18.770;2023-05-10T10:46:18;1.90;;;1.58;;
15067;SDS011;7633;60.024;18.770;2023-05-10T10:51:28;3.42;;;2.67;;
15067;SDS011;7633;60.024;18.770;2023-05-10T10:53:53;2.20;;;1.50;;
15067;SDS011;7633;60.024;18.770;2023-05-10T10:56:19;3.05;;;1.45;;
15067;SDS011;7633;60.024;18.770;2023-05-10T10:58:49;2.40;;;2.10;;
15067;SDS011;7633;60.024;18.770;2023-05-10T11:01:16;2.05;;;1.88;;
15067;SDS011;7633;60.024;18.770;2023-05-10T11:06:29;2.15;;;1.95;;
15067;SDS011;7633;60.024;18.770;2023-05-10T11:08:57;3.25;;;2.40;;
15067;SDS011;7633;60.024;18.770;2023-05-10T11:11:22;2.10;;;1.90;;
15067;SDS011;7633;60.024;18.770;2023-05-10T11:13:48;2.70;;;2.50;;
15067;SDS011;7633;60.024;18.770;2023-05-10T11:16:23;2.53;;;2.33;;
15067;SDS011;7633;60.024;18.770;2023-05-10T11:18:53;2.75;;;2.47;;
15067;SDS011;7633;60.024;18.770;2023-05-10T11:21:19;2.17;;;1.90;;
15067;SDS011;7633;60.024;18.770;2023-05-10T11:23:54;2.20;;;1.80;;
15067;SDS011;7633;60.024;18.770;2023-05-10T11:26:35;3.22;;;2.30;;
15067;SDS011;7633;60.024;18.770;2023-05-10T11:29:02;3.03;;;2.20;;
15067;SDS011;7633;60.024;18.770;2023-05-10T11:31:29;2.20;;;1.77;;
15067;SDS011;7633;60.024;18.770;2023-05-10T11:33:55;3.28;;;2.08;;
15067;SDS011;7633;60.024;18.770;2023-05-10T11:36:26;2.63;;;2.42;;
15067;SDS011;7633;60.024;18.770;2023-05-10T11:38:58;2.10;;;1.98;;
15067;SDS011;7633;60.024;18.770;2023-05-10T11:41:24;4.53;;;2.47;;
15067;SDS011;7633;60.024;18.770;2023-05-10T11:43:50;4.70;;;2.20;;
15067;SDS011;7633;60.024;18.770;2023-05-10T11:46:17;2.75;;;2.30;;
15067;SDS011;7633;60.024;18.770;2023-05-10T11:48:44;3.28;;;2.05;;
15067;SDS011;7633;60.024;18.770;2023-05-10T11:51:10;2.80;;;2.33;;
15067;SDS011;7633;60.024;18.770;2023-05-10T11:53:36;2.50;;;2.22;;
15067;SDS011;7633;60.024;18.770;2023-05-10T11:56:08;3.00;;;2.15;;
15067;SDS011;7633;60.024;18.770;2023-05-10T11:58:34;2.55;;;2.22;;
15067;SDS011;7633;60.024;18.770;2023-05-10T12:01:00;2.30;;;2.10;;
15067;SDS011;7633;60.024;18.770;2023-05-10T12:03:29;2.38;;;2.15;;
15067;SDS011;7633;60.024;18.770;2023-05-10T12:06:04;2.35;;;2.10;;
15067;SDS011;7633;60.024;18.770;2023-05-10T12:08:30;3.03;;;2.30;;
15067;SDS011;7633;60.024;18.770;2023-05-10T12:11:08;2.13;;;1.77;;
15067;SDS011;7633;60.024;18.770;2023-05-10T12:13:42;3.15;;;2.80;;
15067;SDS011;7633;60.024;18.770;2023-05-10T12:16:18;2.13;;;1.92;;
15067;SDS011;7633;60.024;18.770;2023-05-10T12:18:44;2.88;;;2.10;;
15067;SDS011;7633;60.024;18.770;2023-05-10T12:21:11;2.25;;;2.05;;
15067;SDS011;7633;60.024;18.770;2023-05-10T12:23:39;2.42;;;2.22;;
15067;SDS011;7633;60.024;18.770;2023-05-10T12:26:15;2.10;;;1.95;;
15067;SDS011;7633;60.024;18.770;2023-05-10T12:28:50;2.22;;;1.70;;
15067;SDS011;7633;60.024;18.770;2023-05-10T12:31:16;2.70;;;2.50;;
15067;SDS011;7633;60.024;18.770;2023-05-10T12:33:42;2.65;;;2.45;;
15067;SDS011;7633;60.024;18.770;2023-05-10T12:36:09;3.30;;;2.28;;
15067;SDS011;7633;60.024;18.770;2023-05-10T12:38:39;2.75;;;1.95;;
15067;SDS011;7633;60.024;18.770;2023-05-10T12:41:09;2.20;;;2.10;;
15067;SDS011;7633;60.024;18.770;2023-05-10T12:43:37;3.88;;;2.15;;
15067;SDS011;7633;60.024;18.770;2023-05-10T12:46:10;2.38;;;1.70;;
15067;SDS011;7633;60.024;18.770;2023-05-10T12:48:36;2.78;;;2.10;;
15067;SDS011;7633;60.024;18.770;2023-05-10T12:51:03;1.95;;;1.85;;
15067;SDS011;7633;60.024;18.770;2023-05-10T12:53:30;2.97;;;2.67;;
15067;SDS011;7633;60.024;18.770;2023-05-10T12:55:59;2.53;;;2.33;;
15067;SDS011;7633;60.024;18.770;2023-05-10T12:58:25;3.83;;;2.33;;
15067;SDS011;7633;60.024;18.770;2023-05-10T13:00:52;3.47;;;2.28;;
15067;SDS011;7633;60.024;18.770;2023-05-10T13:03:18;2.95;;;2.40;;
15067;SDS011;7633;60.024;18.770;2023-05-10T13:05:45;3.00;;;2.45;;
15067;SDS011;7633;60.024;18.770;2023-05-10T13:08:11;2.90;;;2.70;;
15067;SDS011;7633;60.024;18.770;2023-05-10T13:10:36;3.13;;;2.83;;
15067;SDS011;7633;60.024;18.770;2023-05-10T13:13:02;2.13;;;1.88;;
15067;SDS011;7633;60.024;18.770;2023-05-10T13:15:27;3.38;;;2.15;;
15067;SDS011;7633;60.024;18.770;2023-05-10T13:17:53;2.40;;;2.20;;
15067;SDS011;7633;60.024;18.770;2023-05-10T13:20:19;3.78;;;2.53;;
15067;SDS011;7633;60.024;18.770;2023-05-10T13:22:45;2.50;;;2.30;;
15067;SDS011;7633;60.024;18.770;2023-05-10T13:25:11;2.90;;;2.30;;
15067;SDS011;7633;60.024;18.770;2023-05-10T13:27:39;2.78;;;2.38;;
15067;SDS011;7633;60.024;18.770;2023-05-10T13:30:10;2.63;;;2.30;;
15067;SDS011;7633;60.024;18.770;2023-05-10T13:32:39;2.50;;;2.10;;
15067;SDS011;7633;60.024;18.770;2023-05-10T13:35:05;2.45;;;2.05;;
15067;SDS011;7633;60.024;18.770;2023-05-10T13:37:31;3.05;;;2.40;;
15067;SDS011;7633;60.024;18.770;2023-05-10T13:39:57;2.97;;;2.67;;
15067;SDS011;7633;60.024;18.770;2023-05-10T13:42:26;2.50;;;2.30;;
15067;SDS011;7633;60.024;18.770;2023-05-10T13:44:55;3.42;;;2.30;;
15067;SDS011;7633;60.024;18.770;2023-05-10T13:47:21;2.90;;;2.38;;
15067;SDS011;7633;60.024;18.770;2023-05-10T13:49:47;2.13;;;2.00;;
15067;SDS011;7633;60.024;18.770;2023-05-10T13:52:12;2.30;;;2.10;;
15067;SDS011;7633;60.024;18.770;2023-05-10T13:54:39;3.00;;;2.42;;
15067;SDS011;7633;60.024;18.770;2023-05-10T13:57:04;2.53;;;2.33;;
15067;SDS011;7633;60.024;18.770;2023-05-10T13:59:30;2.20;;;2.10;;
15067;SDS011;7633;60.024;18.770;2023-05-10T14:01:58;1.70;;;1.60;;
15067;SDS011;7633;60.024;18.770;2023-05-10T14:04:26;4.55;;;2.60;;
15067;SDS011;7633;60.024;18.770;2023-05-10T14:06:52;2.50;;;2.30;;
15067;SDS011;7633;60.024;18.770;2023-05-10T14:09:18;2.58;;;2.05;;
15067;SDS011;7633;60.024;18.770;2023-05-10T14:11:43;2.08;;;1.92;;
15067;SDS011;7633;60.024;18.770;2023-05-10T14:14:10;2.20;;;1.98;;
15067;SDS011;7633;60.024;18.770;2023-05-10T14:16:35;2.13;;;1.90;;
15067;SDS011;7633;60.024;18.770;2023-05-10T14:19:01;2.38;;;2.17;;
15067;SDS011;7633;60.024;18.770;2023-05-10T14:21:26;3.05;;;2.20;;
15067;SDS011;7633;60.024;18.770;2023-05-10T14:23:54;2.50;;;2.25;;
15067;SDS011;7633;60.024;18.770;2023-05-10T14:26:21;2.67;;;2.20;;
15067;SDS011;7633;60.024;18.770;2023-05-10T14:28:51;2.97;;;2.72;;
15067;SDS011;7633;60.024;18.770;2023-05-10T14:31:16;2.53;;;2.33;;
15067;SDS011;7633;60.024;18.770;2023-05-10T14:33:42;2.78;;;2.28;;
15067;SDS011;7633;60.024;18.770;2023-05-10T14:36:08;4.15;;;2.50;;
15067;SDS011;7633;60.024;18.770;2023-05-10T14:38:36;2.63;;;2.35;;
15067;SDS011;7633;60.024;18.770;2023-05-10T14:41:03;3.70;;;2.60;;
15067;SDS011;7633;60.024;18.770;2023-05-10T14:43:28;3.63;;;2.63;;
15067;SDS011;7633;60.024;18.770;2023-05-10T14:45:54;2.25;;;2.00;;
15067;SDS011;7633;60.024;18.770;2023-05-10T14:48:19;2.20;;;2.00;;
15067;SDS011;7633;60.024;18.770;2023-05-10T14:50:46;3.75;;;2.50;;
15067;SDS011;7633;60.024;18.770;2023-05-10T14:53:12;2.13;;;2.00;;
15067;SDS011;7633;60.024;18.770;2023-05-10T14:55:40;5.20;;;2.42;;
15067;SDS011;7633;60.024;18.770;2023-05-10T14:58:06;2.00;;;1.90;;
15067;SDS011;7633;60.024;18.770;2023-05-10T15:00:32;2.53;;;2.33;;
15067;SDS011;7633;60.024;18.770;2023-05-10T15:02:58;2.10;;;1.90;;
15067;SDS011;7633;60.024;18.770;2023-05-10T15:05:26;2.70;;;2.50;;
15067;SDS011;7633;60.024;18.770;2023-05-10T15:07:54;3.47;;;2.03;;
15067;SDS011;7633;60.024;18.770;2023-05-10T15:10:19;2.40;;;2.20;;